Time;durP1;ratioP1;P1;durP2;ratioP2;P2;SDS_P1;SDS_P2;PMS_P1;PMS_P2;Temp;Humidity;BMP_temperature;BMP_pressure;BME280_temperature;BME280_humidity;BME280_pressure;Samples;Min_cycle;Max_cycle;Signal;HPM_P1;HPM_P2
2021/01/09 00:02:08;;;;;;;58.03;10.73;;;1.60;99.90;;;;;;5092550;28;20111;-58
2021/01/09 00:04:34;;;;;;;63.88;9.73;;;1.60;99.90;;;;;;5072341;28;20108;-56
2021/01/09 00:07:00;;;;;;;45.25;10.93;;;1.50;99.90;;;;;;5068939;28;20040;-59
2021/01/09 00:09:26;;;;;;;59.22;12.13;;;1.50;99.90;;;;;;5053758;28;20039;-58
2021/01/09 00:11:51;;;;;;;32.05;11.60;;;1.50;99.90;;;;;;5063235;28;20685;-58
2021/01/09 00:14:19;;;;;;;53.33;11.18;;;1.40;99.90;;;;;;5073387;28;20029;-58
2021/01/09 00:16:47;;;;;;;41.05;11.68;;;1.50;99.90;;;;;;5064165;28;20021;-60
2021/01/09 00:19:13;;;;;;;75.18;11.73;;;1.50;99.90;;;;;;5053021;28;20025;-54
2021/01/09 00:21:39;;;;;;;67.10;10.52;;;1.50;99.90;;;;;;5066691;28;20050;-59
2021/01/09 00:24:09;;;;;;;50.40;10.80;;;1.50;99.90;;;;;;5073212;28;20031;-58
2021/01/09 00:26:36;;;;;;;50.03;10.82;;;1.50;99.90;;;;;;5058117;28;20052;-58
2021/01/09 00:29:05;;;;;;;50.63;11.55;;;1.50;99.90;;;;;;5053101;28;20033;-57
2021/01/09 00:31:32;;;;;;;41.42;11.55;;;1.50;99.90;;;;;;5059610;28;20033;-59
2021/01/09 00:33:58;;;;;;;50.88;10.00;;;1.50;99.90;;;;;;5072522;28;20409;-58
2021/01/09 00:36:24;;;;;;;109.97;9.80;;;1.50;99.90;;;;;;5066352;28;20099;-58
2021/01/09 00:38:50;;;;;;;89.85;11.40;;;1.50;99.90;;;;;;5072800;28;20059;-55
2021/01/09 00:41:24;;;;;;;63.28;10.55;;;1.50;99.90;;;;;;5065861;28;20101;-60
2021/01/09 00:43:50;;;;;;;54.55;10.23;;;1.50;99.90;;;;;;5055134;28;20153;-60
2021/01/09 00:46:16;;;;;;;55.10;9.10;;;1.50;99.90;;;;;;5071081;28;20437;-57
2021/01/09 00:48:42;;;;;;;85.18;8.15;;;1.50;99.90;;;;;;5070889;28;20426;-58
2021/01/09 00:51:12;;;;;;;40.35;8.18;;;1.40;99.90;;;;;;5052110;28;20068;-58
2021/01/09 00:53:38;;;;;;;69.18;8.25;;;1.40;99.90;;;;;;5052611;28;20055;-57
2021/01/09 00:56:04;;;;;;;31.83;9.13;;;1.30;99.90;;;;;;5060394;28;20068;-59
2021/01/09 00:58:30;;;;;;;38.13;8.50;;;1.30;99.90;;;;;;5059480;28;20763;-57
2021/01/09 01:00:56;;;;;;;33.08;8.00;;;1.20;99.90;;;;;;5063057;28;20099;-59
2021/01/09 01:03:21;;;;;;;38.17;8.40;;;1.30;99.90;;;;;;5071418;28;20544;-59
2021/01/09 01:05:47;;;;;;;47.45;8.88;;;1.30;99.90;;;;;;5065236;28;20451;-56
2021/01/09 01:08:13;;;;;;;34.30;7.95;;;1.20;99.90;;;;;;5061464;28;20047;-59
2021/01/09 01:10:38;;;;;;;49.10;7.22;;;1.30;99.90;;;;;;5070068;28;20426;-56
2021/01/09 01:13:04;;;;;;;59.67;7.57;;;1.20;99.90;;;;;;5052443;28;20025;-58
2021/01/09 01:15:29;;;;;;;64.63;7.63;;;1.20;99.90;;;;;;5053783;28;20077;-58
2021/01/09 01:17:55;;;;;;;54.10;7.25;;;1.20;99.90;;;;;;5055442;28;20028;-58
2021/01/09 01:20:21;;;;;;;55.95;7.78;;;1.10;99.90;;;;;;5060908;28;20104;-59
2021/01/09 01:22:46;;;;;;;37.25;7.68;;;1.10;99.90;;;;;;5070564;28;20039;-56
2021/01/09 01:25:13;;;;;;;59.15;7.72;;;1.20;99.90;;;;;;5070648;28;20587;-58
2021/01/09 01:27:39;;;;;;;61.38;8.30;;;1.10;99.90;;;;;;5051453;28;20025;-58
2021/01/09 01:30:05;;;;;;;56.50;8.20;;;1.10;99.90;;;;;;5051641;28;20459;-55
2021/01/09 01:32:31;;;;;;;82.30;8.00;;;1.10;99.90;;;;;;5068201;28;20028;-57
2021/01/09 01:34:57;;;;;;;36.05;6.45;;;1.10;99.90;;;;;;5063039;28;20024;-59
2021/01/09 01:37:23;;;;;;;35.50;7.22;;;1.10;99.90;;;;;;5068296;28;20028;-58
2021/01/09 01:39:48;;;;;;;56.25;7.22;;;1.10;99.90;;;;;;5070803;28;20130;-59
2021/01/09 01:42:14;;;;;;;44.35;7.20;;;1.10;99.90;;;;;;5052197;28;20033;-57
2021/01/09 01:44:40;;;;;;;40.13;7.22;;;1.10;99.90;;;;;;5064485;28;20051;-57
2021/01/09 01:47:07;;;;;;;65.93;7.18;;;1.10;99.90;;;;;;5071201;28;20029;-58
2021/01/09 01:49:33;;;;;;;105.28;8.32;;;1.10;99.90;;;;;;5060538;28;20446;-58
2021/01/09 01:51:59;;;;;;;84.38;7.75;;;1.10;99.90;;;;;;5063159;28;20021;-57
2021/01/09 01:54:25;;;;;;;36.90;6.95;;;1.10;99.90;;;;;;5051699;28;20035;-58
2021/01/09 01:56:52;;;;;;;68.97;6.47;;;1.20;99.90;;;;;;5056018;28;20407;-60
2021/01/09 01:59:18;;;;;;;53.92;6.25;;;1.20;99.90;;;;;;5070429;28;20459;-59
2021/01/09 02:01:47;;;;;;;48.92;5.60;;;1.20;99.90;;;;;;5052794;28;20043;-59
2021/01/09 02:04:13;;;;;;;57.35;6.50;;;1.10;99.90;;;;;;5051491;28;20033;-59
2021/01/09 02:06:39;;;;;;;44.92;5.50;;;1.00;99.90;;;;;;5053666;28;20117;-58
2021/01/09 02:09:09;;;;;;;33.35;5.70;;;1.00;99.90;;;;;;5070102;28;20032;-58
2021/01/09 02:12:00;;;;;;;35.28;6.82;;;0.90;99.90;;;;;;5062396;28;20132;-59
2021/01/09 02:14:47;;;;;;;60.33;5.88;;;0.90;99.90;;;;;;5070711;28;20042;-59
2021/01/09 02:17:14;;;;;;;89.57;6.22;;;0.90;99.90;;;;;;5053285;28;20029;-56
2021/01/09 02:19:41;;;;;;;96.38;6.75;;;1.00;99.90;;;;;;5056201;28;20054;-57
2021/01/09 02:22:18;;;;;;;42.28;6.25;;;0.90;99.90;;;;;;5063361;28;20028;-57
2021/01/09 02:24:45;;;;;;;21.65;4.90;;;0.90;99.90;;;;;;5069572;28;20035;-58
2021/01/09 02:27:12;;;;;;;42.00;5.85;;;0.80;99.90;;;;;;5053726;28;20017;-58
2021/01/09 02:29:57;;;;;;;51.47;5.57;;;0.80;99.90;;;;;;5051255;28;20021;-59
2021/01/09 02:32:30;;;;;;;31.45;6.38;;;0.80;99.90;;;;;;5063779;28;20021;-58
2021/01/09 02:34:58;;;;;;;33.55;5.30;;;0.70;99.90;;;;;;5051153;28;20031;-57
2021/01/09 02:37:25;;;;;;;52.35;6.10;;;0.70;99.90;;;;;;5059554;28;20033;-56
2021/01/09 02:39:51;;;;;;;30.35;5.80;;;0.70;99.90;;;;;;5075118;28;20024;-60
2021/01/09 02:42:19;;;;;;;31.95;5.65;;;0.70;99.90;;;;;;5067989;28;20025;-58
2021/01/09 02:44:48;;;;;;;25.73;5.85;;;0.70;99.90;;;;;;5074027;28;20021;-58
2021/01/09 02:47:13;;;;;;;45.97;6.30;;;0.70;99.90;;;;;;5057085;28;20033;-59
2021/01/09 02:49:39;;;;;;;89.43;6.82;;;0.80;99.90;;;;;;5058370;28;20032;-59
2021/01/09 02:52:05;;;;;;;48.10;6.72;;;0.80;99.90;;;;;;5071404;28;20025;-58
2021/01/09 02:54:30;;;;;;;73.03;6.57;;;0.90;99.90;;;;;;5074922;28;20481;-56
2021/01/09 02:56:56;;;;;;;42.05;5.95;;;0.90;99.90;;;;;;5057441;28;20025;-60
2021/01/09 02:59:22;;;;;;;39.05;6.57;;;0.80;99.90;;;;;;5071529;28;20033;-59
2021/01/09 03:01:49;;;;;;;80.15;5.35;;;0.80;99.90;;;;;;5069887;28;20037;-57
2021/01/09 03:04:15;;;;;;;54.60;5.53;;;0.70;99.90;;;;;;5073623;28;20050;-59
2021/01/09 03:06:41;;;;;;;69.38;5.95;;;0.70;99.90;;;;;;5057704;28;20113;-57
2021/01/09 03:09:06;;;;;;;41.42;6.32;;;0.70;99.90;;;;;;5054412;28;20025;-57
2021/01/09 03:11:32;;;;;;;88.85;6.97;;;0.70;99.90;;;;;;5053392;28;20056;-59
2021/01/09 03:13:58;;;;;;;81.40;7.18;;;0.70;99.90;;;;;;5058004;28;20104;-58
2021/01/09 03:16:23;;;;;;;63.72;6.30;;;0.70;99.90;;;;;;5068910;28;20051;-57
2021/01/09 03:18:49;;;;;;;39.60;5.65;;;0.70;99.90;;;;;;5058372;28;20103;-57
2021/01/09 03:21:15;;;;;;;49.00;5.35;;;0.70;99.90;;;;;;5069828;28;20043;-60
2021/01/09 03:23:41;;;;;;;21.58;5.90;;;0.60;99.90;;;;;;5053793;28;20032;-56
2021/01/09 03:26:06;;;;;;;35.10;5.03;;;0.60;99.90;;;;;;5067632;28;20044;-56
2021/01/09 03:28:32;;;;;;;17.17;4.57;;;0.60;99.90;;;;;;5060777;28;20039;-59
2021/01/09 03:30:58;;;;;;;45.08;5.03;;;0.60;99.90;;;;;;5055079;28;20041;-59
2021/01/09 03:33:24;;;;;;;41.80;4.70;;;0.50;99.90;;;;;;5053691;28;20028;-57
2021/01/09 03:35:49;;;;;;;72.10;6.03;;;0.50;99.90;;;;;;5054257;28;20028;-57
2021/01/09 03:38:15;;;;;;;80.32;5.90;;;0.50;99.90;;;;;;5053214;28;20033;-59
2021/01/09 03:40:41;;;;;;;53.08;6.20;;;0.40;99.90;;;;;;5054988;28;20025;-57
2021/01/09 03:43:07;;;;;;;86.80;6.97;;;0.40;99.90;;;;;;5053301;28;20549;-59
2021/01/09 03:45:33;;;;;;;72.55;6.78;;;0.50;99.90;;;;;;5054061;28;20051;-59
2021/01/09 03:47:58;;;;;;;73.97;6.30;;;0.50;99.90;;;;;;5053151;28;20021;-57
2021/01/09 03:50:24;;;;;;;70.82;6.72;;;0.40;99.90;;;;;;5066841;28;20032;-59
2021/01/09 03:52:50;;;;;;;81.45;5.95;;;0.40;99.90;;;;;;5053084;28;20451;-57
2021/01/09 03:55:15;;;;;;;62.25;5.95;;;0.40;99.90;;;;;;5054947;28;20017;-56
2021/01/09 03:57:41;;;;;;;38.03;5.20;;;0.40;99.90;;;;;;5058018;28;20083;-56
2021/01/09 04:00:07;;;;;;;24.02;4.70;;;0.40;99.90;;;;;;5053482;28;20071;-57
2021/01/09 04:02:33;;;;;;;32.53;5.60;;;0.40;99.90;;;;;;5064752;28;20039;-58
2021/01/09 04:05:02;;;;;;;42.47;5.47;;;0.30;99.90;;;;;;5053633;28;20033;-58
2021/01/09 04:07:28;;;;;;;78.72;5.80;;;0.30;99.90;;;;;;5070082;28;20028;-56
2021/01/09 04:09:54;;;;;;;47.17;5.88;;;0.30;99.90;;;;;;5066672;28;20031;-58
2021/01/09 04:12:19;;;;;;;55.88;6.05;;;0.30;99.90;;;;;;5072513;28;20036;-58
2021/01/09 04:14:45;;;;;;;46.70;6.20;;;0.30;99.90;;;;;;5071474;28;20119;-56
2021/01/09 04:17:11;;;;;;;84.03;5.90;;;0.30;99.90;;;;;;5072676;28;20103;-56
2021/01/09 04:19:37;;;;;;;55.30;7.47;;;0.30;99.90;;;;;;5067941;28;20132;-59
2021/01/09 04:22:03;;;;;;;40.97;6.10;;;0.30;99.90;;;;;;5058475;28;20030;-58
2021/01/09 04:24:29;;;;;;;96.60;6.93;;;0.40;99.90;;;;;;5056795;28;20033;-57
2021/01/09 04:26:59;;;;;;;71.97;7.35;;;0.30;99.90;;;;;;5065836;28;20028;-56
2021/01/09 04:29:26;;;;;;;45.55;7.30;;;0.30;99.90;;;;;;5069403;28;20355;-59
2021/01/09 04:31:52;;;;;;;47.97;5.65;;;0.40;99.90;;;;;;5067814;28;20057;-59
2021/01/09 04:34:19;;;;;;;53.67;6.15;;;0.40;99.90;;;;;;5058849;28;20020;-57
2021/01/09 04:36:45;;;;;;;53.33;6.13;;;0.40;99.90;;;;;;5072520;28;20424;-58
2021/01/09 04:39:11;;;;;;;78.45;6.47;;;0.40;99.90;;;;;;5065903;28;20021;-58
2021/01/09 04:41:37;;;;;;;72.90;7.10;;;0.40;99.90;;;;;;5071560;28;20067;-59
2021/01/09 04:44:05;;;;;;;60.45;6.57;;;0.40;99.90;;;;;;5068405;28;20102;-60
2021/01/09 04:46:37;;;;;;;66.78;6.90;;;0.40;99.90;;;;;;5072843;28;20020;-60
2021/01/09 04:49:03;;;;;;;84.30;7.95;;;0.30;99.90;;;;;;5065936;28;20425;-59
2021/01/09 04:51:29;;;;;;;82.28;7.60;;;0.40;99.90;;;;;;5071289;28;20028;-56
2021/01/09 04:53:56;;;;;;;94.10;9.10;;;0.30;99.90;;;;;;5067868;28;20027;-57
2021/01/09 04:56:23;;;;;;;83.68;8.23;;;0.30;99.90;;;;;;5071755;28;20445;-58
2021/01/09 04:58:49;;;;;;;95.63;10.02;;;0.30;99.90;;;;;;5052424;28;20040;-59
2021/01/09 05:01:16;;;;;;;62.47;9.38;;;0.20;99.90;;;;;;5070091;28;20082;-59
2021/01/09 05:03:42;;;;;;;98.05;8.88;;;0.30;99.90;;;;;;5059984;28;20029;-58
2021/01/09 05:06:07;;;;;;;130.85;10.00;;;0.30;99.90;;;;;;5068636;28;20039;-57
2021/01/09 05:08:33;;;;;;;90.05;8.80;;;0.30;99.90;;;;;;5057090;28;20051;-57
2021/01/09 05:10:59;;;;;;;76.88;10.00;;;0.40;99.90;;;;;;5052226;28;20493;-58
2021/01/09 05:13:26;;;;;;;69.47;7.40;;;0.40;99.90;;;;;;5061083;28;20017;-57
2021/01/09 05:15:54;;;;;;;63.92;6.20;;;0.30;99.90;;;;;;5052067;28;20035;-58
2021/01/09 05:18:20;;;;;;;63.03;6.20;;;0.20;99.90;;;;;;5062366;28;20033;-59
2021/01/09 05:20:45;;;;;;;91.82;7.32;;;0.10;99.90;;;;;;5070457;28;20395;-57
2021/01/09 05:23:12;;;;;;;45.10;7.50;;;0.10;99.90;;;;;;5054138;28;20768;-58
2021/01/09 05:25:38;;;;;;;66.97;7.15;;;0.10;99.90;;;;;;5055796;28;20029;-59
2021/01/09 05:28:08;;;;;;;103.47;6.70;;;0.10;99.90;;;;;;5069704;28;20031;-60
2021/01/09 05:30:34;;;;;;;119.88;8.18;;;0.00;99.90;;;;;;5053487;28;20095;-58
2021/01/09 05:33:01;;;;;;;44.10;7.72;;;0.00;99.90;;;;;;5056860;28;20025;-59
2021/01/09 05:35:29;;;;;;;66.22;8.27;;;0.00;99.90;;;;;;5051979;28;20064;-59
2021/01/09 05:37:55;;;;;;;62.70;7.95;;;0.00;99.90;;;;;;5064127;28;20024;-56
2021/01/09 05:40:21;;;;;;;103.72;8.50;;;0.00;99.90;;;;;;5054965;28;20159;-58
2021/01/09 05:42:49;;;;;;;137.35;9.30;;;0.00;99.90;;;;;;5057060;28;20112;-59
2021/01/09 05:45:15;;;;;;;121.80;8.63;;;0.00;99.90;;;;;;5051921;28;20017;-55
2021/01/09 05:47:41;;;;;;;97.38;7.85;;;0.10;99.90;;;;;;5051353;28;20474;-58
2021/01/09 05:50:08;;;;;;;171.88;7.30;;;0.10;99.90;;;;;;5059145;28;20118;-57
2021/01/09 05:52:39;;;;;;;208.25;9.30;;;0.10;99.90;;;;;;5062304;28;20032;-57
2021/01/09 05:55:06;;;;;;;77.95;8.00;;;0.00;99.90;;;;;;5051522;28;20123;-57
2021/01/09 05:57:33;;;;;;;63.65;7.45;;;0.00;99.90;;;;;;5056248;28;20032;-58
2021/01/09 06:00:02;;;;;;;133.05;7.07;;;-0.10;99.90;;;;;;5056434;28;20028;-57
2021/01/09 06:02:31;;;;;;;144.85;8.50;;;0.00;99.90;;;;;;5077532;28;20099;-55
2021/01/09 06:04:59;;;;;;;155.48;8.05;;;-0.10;99.90;;;;;;5069386;28;20036;-56
2021/01/09 06:07:31;;;;;;;90.38;7.95;;;-0.10;99.90;;;;;;5056026;28;20016;-55
2021/01/09 06:10:07;;;;;;;92.22;7.55;;;0.00;99.90;;;;;;5068241;28;20029;-55
2021/01/09 06:12:36;;;;;;;97.93;6.88;;;0.00;99.90;;;;;;5071392;28;20498;-57
2021/01/09 06:15:03;;;;;;;112.20;8.55;;;-0.10;99.90;;;;;;5064535;28;20108;-58
2021/01/09 06:17:31;;;;;;;82.97;7.82;;;-0.10;99.90;;;;;;5051690;28;20167;-58
2021/01/09 06:19:56;;;;;;;123.80;8.02;;;-0.10;99.90;;;;;;5057070;28;20402;-59
2021/01/09 06:22:23;;;;;;;46.08;6.95;;;-0.10;99.90;;;;;;5068508;28;20021;-56
2021/01/09 06:24:49;;;;;;;58.40;8.63;;;-0.10;99.90;;;;;;5052983;28;20036;-58
2021/01/09 06:27:22;;;;;;;67.40;8.70;;;-0.10;99.90;;;;;;5051400;28;20355;-59
2021/01/09 06:29:49;;;;;;;95.95;9.13;;;0.00;99.90;;;;;;5053661;28;20403;-57
2021/01/09 06:32:19;;;;;;;113.63;11.02;;;0.00;99.90;;;;;;5053609;28;20051;-56
2021/01/09 06:34:48;;;;;;;202.43;11.00;;;0.00;99.90;;;;;;5065843;28;20028;-58
2021/01/09 06:37:21;;;;;;;88.95;8.88;;;0.00;99.90;;;;;;5067288;28;20029;-55
2021/01/09 06:39:49;;;;;;;77.00;10.18;;;0.00;99.90;;;;;;5061412;28;20028;-58
2021/01/09 06:42:17;;;;;;;104.50;8.02;;;0.00;99.90;;;;;;5053980;28;20029;-59
2021/01/09 06:44:52;;;;;;;156.93;9.48;;;0.10;99.90;;;;;;5070520;28;20029;-57
2021/01/09 06:47:29;;;;;;;125.75;7.85;;;0.00;99.90;;;;;;5069907;28;20024;-57
2021/01/09 06:49:55;;;;;;;77.15;7.45;;;0.00;99.90;;;;;;5056407;28;20025;-58
2021/01/09 06:52:23;;;;;;;89.85;7.05;;;-0.10;99.90;;;;;;5070029;28;20481;-56
2021/01/09 06:54:48;;;;;;;149.32;7.47;;;-0.20;99.90;;;;;;5065379;28;20074;-56
2021/01/09 06:57:15;;;;;;;135.90;7.85;;;-0.20;99.90;;;;;;5058750;28;20424;-57
2021/01/09 06:59:46;;;;;;;128.00;7.68;;;-0.20;99.90;;;;;;5069957;28;20037;-58
2021/01/09 07:02:26;;;;;;;109.45;7.55;;;-0.30;99.90;;;;;;5069316;28;20514;-58
2021/01/09 07:05:05;;;;;;;65.40;7.20;;;-0.30;99.90;;;;;;5053089;28;20033;-58
2021/01/09 07:07:55;;;;;;;110.38;7.65;;;-0.20;99.90;;;;;;5053747;28;20021;-55
2021/01/09 07:10:24;;;;;;;54.10;6.60;;;-0.20;99.90;;;;;;5068470;28;20036;-57
2021/01/09 07:12:55;;;;;;;90.78;7.80;;;-0.20;99.90;;;;;;5055069;28;20116;-57
2021/01/09 07:15:21;;;;;;;95.60;7.05;;;-0.20;99.90;;;;;;5065633;28;20044;-58
2021/01/09 07:17:53;;;;;;;121.63;6.80;;;-0.10;99.90;;;;;;5052875;28;20033;-55
2021/01/09 07:20:23;;;;;;;112.38;7.72;;;-0.10;99.90;;;;;;5058502;28;20541;-59
2021/01/09 07:22:56;;;;;;;65.97;7.15;;;-0.20;99.90;;;;;;5064564;28;20115;-59
2021/01/09 07:25:41;;;;;;;69.38;6.63;;;-0.20;99.90;;;;;;5072964;28;20099;-57
2021/01/09 07:28:12;;;;;;;127.22;7.70;;;-0.20;99.90;;;;;;5057839;28;20462;-57
2021/01/09 07:30:38;;;;;;;167.35;8.77;;;-0.20;99.90;;;;;;5065723;28;20504;-58
2021/01/09 07:33:12;;;;;;;58.13;7.18;;;-0.20;99.90;;;;;;5057248;28;20041;-56
2021/01/09 07:35:47;;;;;;;186.13;9.20;;;-0.30;99.90;;;;;;5054358;28;20033;-56
2021/01/09 07:38:13;;;;;;;92.40;7.53;;;-0.30;99.90;;;;;;5065827;28;20044;-59
2021/01/09 07:40:45;;;;;;;94.20;7.32;;;-0.40;99.90;;;;;;5073177;28;20527;-59
2021/01/09 07:43:39;;;;;;;93.03;6.85;;;-0.40;99.90;;;;;;5067913;28;20029;-58
2021/01/09 07:46:27;;;;;;;115.72;7.22;;;-0.30;99.90;;;;;;5071436;28;20016;-58
2021/01/09 07:48:55;;;;;;;64.70;8.20;;;-0.40;99.90;;;;;;5061325;28;20078;-57
2021/01/09 07:51:51;;;;;;;64.05;7.63;;;-0.40;99.90;;;;;;5073402;28;20086;-56
2021/01/09 07:54:35;;;;;;;89.47;7.15;;;-0.30;99.90;;;;;;5058033;28;20037;-58
2021/01/09 07:57:03;;;;;;;112.15;7.78;;;-0.30;99.90;;;;;;5062334;28;20017;-54
2021/01/09 07:59:28;;;;;;;114.93;9.32;;;-0.40;99.90;;;;;;5065325;28;20455;-59
2021/01/09 08:01:54;;;;;;;103.38;7.80;;;-0.30;99.90;;;;;;5063759;28;20043;-58
2021/01/09 08:04:20;;;;;;;101.13;6.50;;;-0.40;99.90;;;;;;5065464;28;20021;-56
2021/01/09 08:06:45;;;;;;;151.45;8.18;;;-0.50;99.90;;;;;;5067159;28;20020;-58
2021/01/09 08:09:11;;;;;;;75.43;7.82;;;-0.50;99.90;;;;;;5069517;28;20175;-57
2021/01/09 08:11:44;;;;;;;82.75;8.63;;;-0.50;99.90;;;;;;5066532;28;20053;-59
2021/01/09 08:14:12;;;;;;;49.80;9.88;;;-0.40;99.90;;;;;;5061829;28;20055;-58
2021/01/09 08:16:38;;;;;;;80.78;7.72;;;-0.40;99.90;;;;;;5053779;28;20139;-56
2021/01/09 08:19:14;;;;;;;140.18;7.47;;;-0.30;99.90;;;;;;5059475;28;20090;-56
2021/01/09 08:21:40;;;;;;;74.57;7.78;;;-0.40;99.90;;;;;;5055528;28;20029;-59
2021/01/09 08:24:06;;;;;;;67.57;8.52;;;-0.30;99.90;;;;;;5052551;28;20459;-56
2021/01/09 08:26:33;;;;;;;124.28;7.95;;;-0.30;99.90;;;;;;5056515;28;20120;-57
2021/01/09 08:28:59;;;;;;;81.45;8.50;;;-0.40;99.90;;;;;;5071210;28;20036;-56
2021/01/09 08:31:25;;;;;;;85.68;8.68;;;-0.30;99.90;;;;;;5059243;28;20079;-59
2021/01/09 08:33:51;;;;;;;53.30;8.35;;;-0.40;99.90;;;;;;5060488;28;20111;-58
2021/01/09 08:36:19;;;;;;;108.38;8.13;;;-0.30;99.90;;;;;;5072370;28;20100;-58
2021/01/09 08:38:45;;;;;;;61.85;9.10;;;-0.40;99.90;;;;;;5059612;28;20090;-56
2021/01/09 08:41:11;;;;;;;129.25;10.15;;;-0.40;99.90;;;;;;5053707;28;20021;-57
2021/01/09 08:43:37;;;;;;;69.90;9.55;;;-0.40;99.90;;;;;;5058114;28;20032;-57
2021/01/09 08:46:03;;;;;;;80.10;9.43;;;-0.40;99.90;;;;;;5068169;28;20492;-55
2021/01/09 08:48:30;;;;;;;67.90;8.75;;;-0.30;99.90;;;;;;5054586;28;20024;-60
2021/01/09 08:51:04;;;;;;;117.13;10.35;;;-0.30;99.90;;;;;;5051777;28;20516;-58
2021/01/09 08:53:54;;;;;;;96.43;10.67;;;-0.40;99.90;;;;;;5057365;28;20049;-54
2021/01/09 08:56:21;;;;;;;71.88;10.95;;;-0.40;99.90;;;;;;5067997;28;20044;-58
2021/01/09 08:58:47;;;;;;;71.68;10.32;;;-0.40;99.90;;;;;;5063070;28;20021;-57
2021/01/09 09:01:14;;;;;;;48.75;10.65;;;-0.30;99.90;;;;;;5067638;28;20028;-55
2021/01/09 09:03:47;;;;;;;43.65;9.50;;;-0.30;99.90;;;;;;5057236;28;20513;-56
2021/01/09 09:06:16;;;;;;;97.45;9.27;;;-0.20;99.90;;;;;;5059988;28;20115;-58
2021/01/09 09:08:43;;;;;;;61.65;8.10;;;-0.20;99.90;;;;;;5071593;28;20029;-58
2021/01/09 09:11:09;;;;;;;100.53;8.82;;;-0.20;99.90;;;;;;5059993;28;20037;-58
2021/01/09 09:13:35;;;;;;;198.93;9.85;;;-0.30;99.90;;;;;;5057198;28;20021;-59
2021/01/09 09:16:21;;;;;;;215.73;11.15;;;-0.30;99.90;;;;;;5070474;28;20024;-57
2021/01/09 09:18:50;;;;;;;73.90;9.98;;;-0.40;99.90;;;;;;5068020;28;20037;-60
2021/01/09 09:21:19;;;;;;;93.97;9.73;;;-0.30;99.90;;;;;;5057995;28;20025;-56
2021/01/09 09:23:52;;;;;;;55.95;8.70;;;-0.30;99.90;;;;;;5058412;28;20078;-58
2021/01/09 09:26:18;;;;;;;84.10;7.97;;;-0.20;99.90;;;;;;5057824;28;20025;-60
2021/01/09 09:28:52;;;;;;;158.32;10.15;;;-0.30;99.90;;;;;;5070395;28;20119;-58
2021/01/09 09:31:27;;;;;;;96.97;9.10;;;-0.20;99.90;;;;;;5055291;28;20036;-58
2021/01/09 09:34:08;;;;;;;109.15;11.02;;;-0.20;99.90;;;;;;5053611;28;20033;-56
2021/01/09 09:36:37;;;;;;;113.45;9.73;;;-0.20;99.90;;;;;;5055706;28;20025;-57
2021/01/09 09:39:15;;;;;;;115.47;9.13;;;-0.20;99.90;;;;;;5053883;28;20032;-60
2021/01/09 09:41:48;;;;;;;62.63;10.15;;;-0.20;99.90;;;;;;5055171;28;20029;-57
2021/01/09 09:44:14;;;;;;;41.88;8.82;;;-0.20;99.90;;;;;;5061309;28;20081;-57
2021/01/09 09:46:41;;;;;;;129.30;9.77;;;-0.20;99.90;;;;;;5065500;28;20032;-58
2021/01/09 09:49:07;;;;;;;105.63;8.18;;;-0.20;99.90;;;;;;5058904;28;20026;-58
2021/01/09 09:51:36;;;;;;;82.43;8.20;;;-0.20;99.90;;;;;;5063780;28;20046;-58
2021/01/09 09:54:03;;;;;;;117.70;8.50;;;-0.10;99.90;;;;;;5062045;28;20028;-60
2021/01/09 09:56:41;;;;;;;68.93;8.27;;;-0.10;99.90;;;;;;5058649;28;20025;-60
2021/01/09 09:59:09;;;;;;;86.32;8.93;;;-0.10;99.90;;;;;;5053137;28;20029;-58
2021/01/09 10:01:35;;;;;;;59.38;8.13;;;-0.10;99.90;;;;;;5061202;28;20037;-57
2021/01/09 10:04:02;;;;;;;72.38;9.07;;;-0.10;99.90;;;;;;5062722;28;20060;-58
2021/01/09 10:06:34;;;;;;;60.30;8.50;;;0.00;99.90;;;;;;5064002;28;20028;-58
2021/01/09 10:09:20;;;;;;;45.33;7.00;;;0.00;99.90;;;;;;5058023;28;20033;-56
2021/01/09 10:11:51;;;;;;;61.30;7.32;;;-0.10;99.90;;;;;;5061319;28;20116;-56
2021/01/09 10:14:17;;;;;;;49.92;7.45;;;-0.10;99.90;;;;;;5055599;28;20021;-58
2021/01/09 10:16:43;;;;;;;58.42;7.47;;;-0.10;99.90;;;;;;5063828;28;20427;-58
2021/01/09 10:19:11;;;;;;;44.55;7.50;;;-0.20;99.90;;;;;;5060989;28;20029;-60
2021/01/09 10:21:37;;;;;;;38.33;7.97;;;-0.20;99.90;;;;;;5052109;28;20469;-59
2021/01/09 10:24:04;;;;;;;34.58;7.53;;;-0.20;99.90;;;;;;5060358;28;20032;-58
2021/01/09 10:26:31;;;;;;;87.35;7.68;;;-0.20;99.90;;;;;;5055308;28;20028;-56
2021/01/09 10:29:02;;;;;;;33.30;8.73;;;-0.10;99.90;;;;;;5060626;28;20027;-58
2021/01/09 10:31:39;;;;;;;67.03;8.57;;;-0.10;99.90;;;;;;5062907;28;20120;-59
2021/01/09 10:34:07;;;;;;;33.75;9.02;;;-0.20;99.90;;;;;;5058851;28;20027;-59
2021/01/09 10:36:35;;;;;;;95.22;8.48;;;-0.10;99.90;;;;;;5055409;28;20545;-57
2021/01/09 10:39:02;;;;;;;67.35;8.73;;;-0.10;99.90;;;;;;5068715;28;20130;-59
2021/01/09 10:41:27;;;;;;;55.67;7.65;;;-0.10;99.90;;;;;;5059536;28;20099;-58
2021/01/09 10:43:53;;;;;;;46.42;8.73;;;-0.10;99.90;;;;;;5055688;28;20104;-57
2021/01/09 10:46:28;;;;;;;79.13;8.05;;;0.00;99.90;;;;;;5064466;28;20021;-59
2021/01/09 10:48:55;;;;;;;41.13;8.10;;;-0.10;99.90;;;;;;5061408;28;20020;-58
2021/01/09 10:51:22;;;;;;;84.25;8.82;;;-0.10;99.90;;;;;;5062259;28;20112;-57
2021/01/09 10:53:48;;;;;;;52.58;7.65;;;-0.10;99.90;;;;;;5061535;28;20025;-56
2021/01/09 10:56:14;;;;;;;52.00;7.63;;;0.00;99.90;;;;;;5059307;28;20024;-54
2021/01/09 10:58:43;;;;;;;45.33;7.90;;;0.00;99.90;;;;;;5059619;28;20115;-58
2021/01/09 11:01:09;;;;;;;106.63;10.73;;;0.00;99.90;;;;;;5060729;28;20424;-57
2021/01/09 11:03:36;;;;;;;108.05;9.48;;;0.00;99.90;;;;;;5057664;28;20510;-61
2021/01/09 11:06:02;;;;;;;77.22;8.57;;;0.00;99.90;;;;;;5056827;28;20031;-57
2021/01/09 11:08:28;;;;;;;133.15;9.80;;;0.10;99.90;;;;;;5056411;28;20029;-60
2021/01/09 11:10:55;;;;;;;109.28;9.65;;;0.10;99.90;;;;;;5055882;28;20106;-58
2021/01/09 11:13:21;;;;;;;70.75;8.85;;;0.10;99.90;;;;;;5064262;28;20032;-57
2021/01/09 11:15:49;;;;;;;97.32;9.02;;;0.10;99.90;;;;;;5061945;28;20024;-56
2021/01/09 11:18:18;;;;;;;76.03;9.35;;;0.10;99.90;;;;;;5057507;28;20132;-59
2021/01/09 11:20:48;;;;;;;87.97;8.90;;;0.10;99.90;;;;;;5069055;28;20107;-61
2021/01/09 11:23:14;;;;;;;84.95;9.07;;;0.20;99.90;;;;;;5067770;28;20055;-57
2021/01/09 11:25:43;;;;;;;46.42;9.40;;;0.20;99.90;;;;;;5058120;28;20033;-59
2021/01/09 11:28:10;;;;;;;37.30;9.27;;;0.30;99.90;;;;;;5056439;28;20124;-59
2021/01/09 11:30:36;;;;;;;67.18;9.57;;;0.40;99.90;;;;;;5055879;28;20028;-59
2021/01/09 11:33:02;;;;;;;52.08;9.68;;;0.40;99.90;;;;;;5060579;28;20028;-58
2021/01/09 11:35:27;;;;;;;97.78;8.88;;;0.50;99.90;;;;;;5054857;28;20040;-60
2021/01/09 11:37:56;;;;;;;47.30;9.50;;;0.40;99.90;;;;;;5058405;28;20020;-59
2021/01/09 11:40:22;;;;;;;45.58;9.32;;;0.40;99.90;;;;;;5072434;28;20024;-57
2021/01/09 11:42:47;;;;;;;32.78;9.15;;;0.40;99.90;;;;;;5052661;28;20385;-56
2021/01/09 11:45:15;;;;;;;40.60;8.13;;;0.50;99.90;;;;;;5058375;28;20032;-57
2021/01/09 11:47:43;;;;;;;94.97;9.18;;;0.40;99.90;;;;;;5054210;28;20130;-55
2021/01/09 11:50:10;;;;;;;66.97;9.35;;;0.50;99.90;;;;;;5054287;28;20087;-58
2021/01/09 11:52:36;;;;;;;42.00;8.35;;;0.50;99.90;;;;;;5055893;28;20086;-59
2021/01/09 11:55:03;;;;;;;22.55;8.88;;;0.40;99.90;;;;;;5062015;28;20406;-58
2021/01/09 11:57:28;;;;;;;27.13;9.70;;;0.50;99.90;;;;;;5054240;28;20083;-58
2021/01/09 11:59:54;;;;;;;41.15;9.50;;;0.50;99.90;;;;;;5053230;28;20029;-60
2021/01/09 12:02:20;;;;;;;49.67;9.50;;;0.50;99.90;;;;;;5062945;28;20024;-59
2021/01/09 12:04:45;;;;;;;25.35;8.85;;;0.60;99.90;;;;;;5061701;28;20028;-55
2021/01/09 12:07:11;;;;;;;33.40;9.43;;;0.60;99.90;;;;;;5072583;28;20020;-57
2021/01/09 12:09:37;;;;;;;64.53;9.05;;;0.60;99.90;;;;;;5071983;28;20457;-58
2021/01/09 12:12:02;;;;;;;93.78;9.18;;;0.60;99.90;;;;;;5071948;28;20051;-57
2021/01/09 12:14:28;;;;;;;63.38;12.07;;;0.50;99.90;;;;;;5071681;28;20103;-60
2021/01/09 12:16:54;;;;;;;52.85;9.93;;;0.60;99.90;;;;;;5068996;28;20029;-57
2021/01/09 12:19:24;;;;;;;46.00;8.48;;;0.80;99.90;;;;;;5064708;28;20071;-60
2021/01/09 12:21:54;;;;;;;47.00;9.00;;;0.90;99.90;;;;;;5070797;28;20061;-57
2021/01/09 12:24:20;;;;;;;23.70;8.43;;;0.90;99.90;;;;;;5058758;28;20378;-58
2021/01/09 12:26:53;;;;;;;37.33;8.13;;;0.80;99.90;;;;;;5060280;28;20033;-59
2021/01/09 12:29:19;;;;;;;20.88;7.03;;;0.80;99.90;;;;;;5054494;28;20029;-59
2021/01/09 12:31:45;;;;;;;54.28;8.02;;;0.70;99.90;;;;;;5053419;28;20111;-58
2021/01/09 12:34:12;;;;;;;32.95;7.40;;;0.60;99.90;;;;;;5072922;28;20028;-59
2021/01/09 12:36:38;;;;;;;28.60;7.25;;;0.60;99.90;;;;;;5065556;28;20048;-58
2021/01/09 12:39:05;;;;;;;43.40;7.85;;;0.60;99.90;;;;;;5071199;28;20040;-57
2021/01/09 12:41:35;;;;;;;115.55;9.02;;;0.60;99.90;;;;;;5053969;28;20096;-59
2021/01/09 12:44:05;;;;;;;38.05;8.05;;;0.70;99.90;;;;;;5071234;28;20025;-55
2021/01/09 12:46:49;;;;;;;30.48;7.95;;;0.60;99.90;;;;;;5070645;28;20029;-57